createdAt,value
2017-12-14T00:01:39.187Z,12.80
2017-12-14T00:04:06.712Z,14.93
2017-12-14T00:06:34.235Z,14.97
2017-12-14T00:09:01.759Z,12.47
2017-12-14T00:11:29.277Z,11.37
2017-12-14T00:13:56.840Z,18.03
2017-12-14T00:16:24.353Z,21.77
2017-12-14T00:18:51.860Z,16.10
2017-12-14T00:21:19.397Z,22.23
2017-12-14T00:23:46.899Z,17.27
2017-12-14T00:26:14.457Z,10.10
2017-12-14T00:28:41.980Z,11.13
2017-12-14T00:31:09.495Z,22.17
2017-12-14T00:33:37.072Z,20.40
2017-12-14T00:36:04.583Z,19.10
2017-12-14T00:38:32.101Z,23.73
2017-12-14T00:40:59.641Z,21.80
2017-12-14T00:43:27.164Z,24.23
2017-12-14T00:45:54.662Z,21.17
2017-12-14T00:48:22.230Z,14.63
2017-12-14T00:50:49.748Z,20.03
2017-12-14T00:53:17.276Z,18.40
2017-12-14T00:55:44.849Z,10.43
2017-12-14T00:58:12.378Z,15.00
2017-12-14T01:00:39.914Z,13.47
2017-12-14T01:03:07.498Z,14.13
2017-12-14T01:05:35.013Z,15.73
2017-12-14T01:08:02.531Z,14.50
2017-12-14T01:10:30.102Z,17.33
2017-12-14T01:12:57.626Z,17.97
2017-12-14T01:15:25.150Z,11.60
2017-12-14T01:17:52.689Z,7.60
2017-12-14T01:20:20.187Z,8.53
2017-12-14T01:22:47.726Z,7.93
2017-12-14T01:25:15.256Z,13.87
2017-12-14T01:27:42.808Z,9.60
2017-12-14T01:30:10.336Z,15.13
2017-12-14T01:32:37.850Z,17.20
2017-12-14T01:35:05.392Z,31.07
2017-12-14T01:37:32.905Z,7.63
2017-12-14T01:40:00.479Z,18.13
2017-12-14T01:42:28.010Z,13.23
2017-12-14T01:44:55.520Z,13.47
2017-12-14T01:47:23.085Z,15.10
2017-12-14T01:49:50.597Z,19.00
2017-12-14T01:52:18.114Z,14.10
2017-12-14T01:54:45.781Z,13.10
2017-12-14T01:57:13.296Z,11.30
2017-12-14T01:59:40.814Z,14.17
2017-12-14T02:02:08.360Z,13.13
2017-12-14T02:04:35.873Z,12.67
2017-12-14T02:07:03.384Z,19.17
2017-12-14T02:09:30.953Z,13.07
2017-12-14T02:11:58.473Z,12.70
2017-12-14T02:14:25.988Z,22.47
2017-12-14T02:16:53.520Z,15.07
2017-12-14T02:19:21.089Z,19.73
2017-12-14T02:21:48.634Z,13.17
2017-12-14T02:24:16.143Z,8.70
2017-12-14T02:26:43.721Z,15.07
2017-12-14T02:29:11.227Z,5.47
2017-12-14T02:31:38.736Z,15.97
2017-12-14T02:34:06.302Z,14.77
2017-12-14T02:36:33.823Z,11.20
2017-12-14T02:39:01.332Z,20.37
2017-12-14T02:41:28.891Z,14.13
2017-12-14T02:43:56.570Z,10.13
2017-12-14T02:46:24.097Z,12.63
2017-12-14T02:48:51.671Z,13.67
2017-12-14T02:51:19.210Z,15.23
2017-12-14T02:53:46.728Z,17.00
2017-12-14T02:56:14.308Z,12.67
2017-12-14T02:58:41.828Z,13.17
2017-12-14T03:01:09.345Z,14.10
2017-12-14T03:03:37.011Z,19.10
2017-12-14T03:06:04.542Z,18.00
2017-12-14T03:08:32.145Z,14.83
2017-12-14T03:10:59.709Z,16.87
2017-12-14T03:13:27.263Z,13.93
2017-12-14T03:15:54.782Z,17.27
2017-12-14T03:18:22.295Z,19.20
2017-12-14T03:20:49.847Z,21.17
2017-12-14T03:23:17.360Z,14.03
2017-12-14T03:25:44.869Z,28.17
2017-12-14T03:28:12.432Z,17.30
2017-12-14T03:30:39.951Z,19.23
2017-12-14T03:33:07.474Z,18.47
2017-12-14T03:35:35.039Z,11.17
2017-12-14T03:38:02.601Z,15.37
2017-12-14T03:40:30.114Z,19.03
2017-12-14T03:42:57.634Z,19.67
2017-12-14T03:45:25.203Z,17.80
2017-12-14T03:47:52.709Z,13.13
2017-12-14T03:50:20.249Z,16.30
2017-12-14T03:52:47.814Z,15.60
2017-12-14T03:55:15.320Z,17.90
2017-12-14T03:57:42.956Z,21.03
2017-12-14T04:00:10.483Z,29.77
2017-12-14T04:02:37.994Z,25.10
2017-12-14T04:05:05.574Z,22.77
2017-12-14T04:07:33.084Z,23.13
2017-12-14T04:10:00.616Z,23.17
2017-12-14T04:12:28.180Z,22.10
2017-12-14T04:14:55.726Z,29.20
2017-12-14T04:17:23.281Z,16.73
2017-12-14T04:19:50.830Z,23.07
2017-12-14T04:22:18.363Z,18.90
2017-12-14T04:24:45.942Z,26.23
2017-12-14T04:27:13.480Z,21.97
2017-12-14T04:29:41.110Z,29.47
2017-12-14T04:32:08.658Z,27.23
2017-12-14T04:34:36.201Z,21.30
2017-12-14T04:37:03.757Z,31.60
2017-12-14T04:39:31.345Z,29.00
2017-12-14T04:41:58.891Z,29.43
2017-12-14T04:44:26.437Z,26.87
2017-12-14T04:46:54.032Z,31.13
2017-12-14T04:49:21.586Z,37.57
2017-12-14T04:51:49.234Z,35.13
2017-12-14T04:54:16.828Z,31.60
2017-12-14T04:56:44.365Z,38.37
2017-12-14T04:59:11.923Z,30.87
2017-12-14T05:01:39.505Z,35.43
2017-12-14T05:04:07.021Z,23.30
2017-12-14T05:06:34.548Z,35.87
2017-12-14T05:09:02.127Z,29.37
2017-12-14T05:11:29.676Z,25.60
2017-12-14T05:13:57.198Z,16.67
2017-12-14T05:16:24.791Z,20.83
2017-12-14T05:18:52.350Z,21.03
2017-12-14T05:21:19.894Z,20.47
2017-12-14T05:23:47.483Z,14.70
2017-12-14T05:26:15.030Z,12.40
2017-12-14T05:28:42.579Z,17.00
2017-12-14T05:31:10.118Z,11.73
2017-12-14T05:33:37.698Z,17.20
2017-12-14T05:36:05.232Z,18.43
2017-12-14T05:38:32.775Z,6.97
2017-12-14T05:41:00.353Z,9.93
2017-12-14T05:43:27.902Z,7.80
2017-12-14T05:45:55.440Z,8.93
2017-12-14T05:48:23.205Z,7.70
2017-12-14T05:50:50.765Z,3.43
2017-12-14T05:53:18.392Z,9.00
2017-12-14T05:55:45.979Z,6.80
2017-12-14T05:58:13.514Z,6.33
2017-12-14T06:00:41.041Z,6.67
2017-12-14T06:03:08.616Z,8.73
2017-12-14T06:05:36.159Z,9.33
2017-12-14T06:08:03.730Z,8.87
2017-12-14T06:10:31.248Z,8.73
2017-12-14T06:12:58.816Z,8.57
2017-12-14T06:15:26.348Z,10.93
2017-12-14T06:17:53.908Z,9.77
2017-12-14T06:20:21.445Z,15.27
2017-12-14T06:22:49.067Z,12.70
2017-12-14T06:25:16.605Z,11.73
2017-12-14T06:27:44.155Z,17.60
2017-12-14T06:30:11.736Z,11.37
2017-12-14T06:32:39.275Z,15.50
2017-12-14T06:35:06.840Z,18.30
2017-12-14T06:37:34.389Z,16.87
2017-12-14T06:40:01.974Z,11.20
2017-12-14T06:42:29.509Z,13.97
2017-12-14T06:44:57.033Z,16.63
2017-12-14T06:47:24.594Z,18.73
2017-12-14T06:49:52.156Z,18.80
2017-12-14T06:52:19.660Z,17.37
2017-12-14T06:54:47.216Z,16.50
2017-12-14T06:57:14.739Z,17.53
2017-12-14T06:59:42.306Z,16.03
2017-12-14T07:02:09.836Z,15.17
2017-12-14T07:04:37.357Z,17.60
2017-12-14T07:07:04.908Z,13.00
2017-12-14T07:09:32.502Z,22.93
2017-12-14T07:12:00.048Z,18.60
2017-12-14T07:14:27.569Z,14.30
2017-12-14T07:16:55.152Z,16.70
2017-12-14T07:19:22.673Z,16.13
2017-12-14T07:21:50.202Z,14.00
2017-12-14T07:24:17.764Z,15.27
2017-12-14T07:26:45.284Z,16.00
2017-12-14T07:29:12.825Z,19.10
2017-12-14T07:31:40.385Z,22.10
2017-12-14T07:34:07.975Z,21.37
2017-12-14T07:36:35.522Z,14.80
2017-12-14T07:39:03.113Z,24.57
2017-12-14T07:41:30.648Z,16.00
2017-12-14T07:44:10.153Z,14.47
2017-12-14T07:46:49.628Z,14.80
2017-12-14T07:49:24.591Z,19.90
2017-12-14T07:51:52.145Z,22.30
2017-12-14T07:54:19.700Z,25.57
2017-12-14T07:56:47.316Z,21.10
2017-12-14T07:59:14.854Z,27.87
2017-12-14T08:01:42.397Z,26.80
2017-12-14T08:04:09.989Z,26.60
2017-12-14T08:06:37.540Z,32.53
2017-12-14T08:09:05.117Z,31.20
2017-12-14T08:11:32.716Z,32.53
2017-12-14T08:14:00.245Z,34.07
2017-12-14T08:16:27.776Z,27.17
2017-12-14T08:18:55.358Z,39.17
2017-12-14T08:21:22.884Z,30.33
2017-12-14T08:23:50.432Z,30.13
2017-12-14T08:26:18.040Z,33.23
2017-12-14T08:28:45.589Z,33.37
2017-12-14T08:31:13.123Z,25.27
2017-12-14T08:33:40.679Z,34.33
2017-12-14T08:36:08.208Z,27.13
2017-12-14T08:38:35.804Z,31.97
2017-12-14T08:41:03.338Z,31.50
2017-12-14T08:43:30.902Z,36.73
2017-12-14T08:45:58.488Z,34.10
2017-12-14T08:48:26.031Z,30.63
2017-12-14T08:50:53.563Z,28.83
2017-12-14T08:53:21.152Z,27.80
2017-12-14T08:55:48.686Z,21.07
2017-12-14T08:58:16.200Z,29.67
2017-12-14T09:00:43.760Z,30.70
2017-12-14T09:03:12.116Z,35.00
2017-12-14T09:05:39.631Z,22.00
2017-12-14T09:08:07.152Z,27.53
2017-12-14T09:10:34.733Z,19.57
2017-12-14T09:13:02.286Z,19.30
2017-12-14T09:15:29.827Z,19.43
2017-12-14T09:17:57.385Z,19.40
2017-12-14T09:20:24.899Z,22.73
2017-12-14T09:22:52.461Z,20.13
2017-12-14T09:25:19.975Z,11.30
2017-12-14T09:27:47.526Z,11.60
2017-12-14T09:30:15.056Z,9.63
2017-12-14T09:32:42.588Z,17.90
2017-12-14T09:35:10.130Z,7.47
2017-12-14T09:37:37.661Z,10.30
2017-12-14T09:40:05.204Z,11.40
2017-12-14T09:42:32.715Z,13.17
2017-12-14T09:45:00.310Z,18.27
2017-12-14T09:47:27.847Z,17.33
2017-12-14T09:49:55.376Z,15.80
2017-12-14T09:52:22.944Z,14.73
2017-12-14T09:54:50.475Z,7.77
2017-12-14T09:57:18.026Z,8.20
2017-12-14T09:59:45.629Z,6.63
2017-12-14T10:02:13.143Z,6.00
2017-12-14T10:04:40.652Z,7.30
2017-12-14T10:07:08.248Z,7.57
2017-12-14T10:09:35.786Z,4.97
2017-12-14T10:12:03.309Z,6.30
2017-12-14T10:14:30.927Z,6.20
2017-12-14T10:16:58.455Z,4.20
2017-12-14T10:19:25.979Z,5.83
2017-12-14T10:21:53.570Z,8.97
2017-12-14T10:24:21.089Z,5.83
2017-12-14T10:26:48.632Z,10.13
2017-12-14T10:29:16.257Z,7.57
2017-12-14T10:31:43.785Z,7.93
2017-12-14T10:34:11.322Z,6.77
2017-12-14T10:36:38.903Z,13.00
2017-12-14T10:39:06.417Z,7.40
2017-12-14T10:41:33.945Z,10.70
2017-12-14T10:44:01.517Z,11.90
2017-12-14T10:46:29.046Z,10.57
2017-12-14T10:48:56.671Z,11.20
2017-12-14T10:51:24.222Z,10.57
2017-12-14T10:53:51.775Z,13.30
2017-12-14T10:56:19.346Z,10.97
2017-12-14T10:58:46.919Z,9.37
2017-12-14T11:01:19.855Z,10.70
2017-12-14T11:03:47.430Z,8.03
2017-12-14T11:06:14.964Z,12.23
2017-12-14T11:08:42.492Z,12.30
2017-12-14T11:11:10.064Z,10.10
2017-12-14T11:13:37.597Z,12.20
2017-12-14T11:16:05.136Z,10.57
2017-12-14T11:18:32.745Z,7.83
2017-12-14T11:21:00.279Z,9.40
2017-12-14T11:23:27.803Z,7.40
2017-12-14T11:25:55.399Z,11.33
2017-12-14T11:28:22.929Z,7.07
2017-12-14T11:30:50.456Z,5.60
2017-12-14T11:33:18.004Z,4.90
2017-12-14T11:35:45.560Z,8.20
2017-12-14T11:38:13.095Z,3.60
2017-12-14T11:40:40.711Z,3.30
2017-12-14T11:43:08.220Z,5.27
2017-12-14T11:45:35.744Z,4.40
2017-12-14T11:48:03.333Z,7.93
2017-12-14T11:50:30.847Z,8.43
2017-12-14T11:52:58.361Z,3.73
2017-12-14T11:55:25.920Z,5.60
2017-12-14T11:57:53.514Z,4.90
2017-12-14T12:00:21.704Z,5.53
2017-12-14T12:02:49.298Z,10.57
2017-12-14T12:05:16.841Z,7.60
2017-12-14T12:07:44.362Z,4.40
2017-12-14T12:10:11.940Z,5.90
2017-12-14T12:12:39.487Z,4.80
2017-12-14T12:15:07.016Z,6.80
2017-12-14T12:17:34.592Z,7.57
2017-12-14T12:20:02.127Z,15.20
2017-12-14T12:22:29.669Z,6.43
2017-12-14T12:24:57.244Z,5.00
2017-12-14T12:27:24.748Z,6.73
2017-12-14T12:29:52.257Z,7.37
2017-12-14T12:32:19.860Z,9.67
2017-12-14T12:34:47.392Z,11.23
2017-12-14T12:37:14.939Z,4.70
2017-12-14T12:39:42.464Z,7.03
2017-12-14T12:42:10.054Z,8.03
2017-12-14T12:44:37.583Z,12.97
2017-12-14T12:47:05.104Z,3.60
2017-12-14T12:49:32.668Z,6.27
2017-12-14T12:52:00.212Z,17.83
2017-12-14T12:54:27.719Z,7.40
2017-12-14T12:56:55.310Z,6.13
2017-12-14T12:59:22.841Z,9.00
2017-12-14T13:01:50.370Z,9.73
2017-12-14T13:04:17.939Z,7.30
2017-12-14T13:06:45.460Z,9.83
2017-12-14T13:09:12.992Z,7.20
2017-12-14T13:11:40.557Z,11.13
2017-12-14T13:14:08.080Z,9.40
2017-12-14T13:16:35.606Z,8.63
2017-12-14T13:19:03.176Z,8.67
2017-12-14T13:21:30.700Z,8.33
2017-12-14T13:23:58.245Z,6.93
2017-12-14T13:26:25.794Z,7.90
2017-12-14T13:28:53.345Z,5.17
2017-12-14T13:31:20.843Z,7.13
2017-12-14T13:33:48.429Z,9.17
2017-12-14T13:36:16.019Z,6.40
2017-12-14T13:38:43.536Z,5.67
2017-12-14T13:41:11.107Z,11.77
2017-12-14T13:43:38.629Z,6.27
2017-12-14T13:46:06.149Z,6.00
2017-12-14T13:48:33.729Z,8.93
2017-12-14T13:51:01.257Z,6.80
2017-12-14T13:53:28.790Z,3.70
2017-12-14T13:55:56.321Z,9.90
2017-12-14T13:58:23.845Z,9.23
2017-12-14T14:00:51.405Z,7.53
2017-12-14T14:03:18.927Z,5.13
2017-12-14T14:05:46.473Z,5.47
2017-12-14T14:08:13.991Z,4.23
2017-12-14T14:10:41.543Z,5.53
2017-12-14T14:13:09.056Z,4.83
2017-12-14T14:15:36.569Z,4.60
2017-12-14T14:18:04.146Z,4.60
2017-12-14T14:20:31.683Z,6.50
2017-12-14T14:22:59.188Z,8.50
2017-12-14T14:25:26.752Z,3.43
2017-12-14T14:27:54.264Z,4.80
2017-12-14T14:30:21.788Z,2.90
2017-12-14T14:32:49.347Z,5.33
2017-12-14T14:35:16.848Z,2.40
2017-12-14T14:37:44.353Z,6.90
2017-12-14T14:40:11.925Z,5.13
2017-12-14T14:42:39.464Z,6.00
2017-12-14T14:45:06.986Z,2.40
2017-12-14T14:47:34.556Z,2.77
2017-12-14T14:50:02.072Z,5.30
2017-12-14T14:52:29.575Z,4.03
2017-12-14T14:54:57.136Z,4.27
2017-12-14T14:57:24.747Z,5.00
2017-12-14T14:59:52.259Z,4.03
2017-12-14T15:02:19.871Z,5.40
2017-12-14T15:04:47.352Z,5.10
2017-12-14T15:07:14.847Z,5.07
2017-12-14T15:09:42.385Z,4.70
2017-12-14T15:12:09.912Z,2.60
2017-12-14T15:14:37.416Z,3.83
2017-12-14T15:17:04.964Z,4.83
2017-12-14T15:19:32.595Z,31.57
2017-12-14T15:22:00.104Z,5.20
2017-12-14T15:24:27.716Z,9.43
2017-12-14T15:26:55.228Z,12.37
2017-12-14T15:29:22.742Z,10.93
2017-12-14T15:31:50.301Z,6.70
2017-12-14T15:34:17.808Z,5.60
2017-12-14T15:36:45.366Z,6.70
2017-12-14T15:39:12.868Z,10.67
2017-12-14T15:41:40.387Z,8.37
2017-12-14T15:44:07.937Z,9.20
2017-12-14T15:46:35.451Z,11.27
2017-12-14T15:49:02.966Z,11.50
2017-12-14T15:51:30.537Z,12.37
2017-12-14T15:53:58.054Z,10.33
2017-12-14T15:56:25.561Z,14.90
2017-12-14T15:58:53.132Z,12.70
2017-12-14T16:01:20.645Z,14.50
2017-12-14T16:03:48.147Z,15.10
2017-12-14T16:06:15.685Z,16.60
2017-12-14T16:08:43.268Z,28.90
2017-12-14T16:11:10.771Z,39.30
2017-12-14T16:13:38.277Z,30.77
2017-12-14T16:16:05.840Z,48.97
2017-12-14T16:18:33.376Z,50.27
2017-12-14T16:21:00.884Z,26.93
2017-12-14T16:23:28.452Z,29.90
2017-12-14T16:25:55.972Z,39.97
2017-12-14T16:28:23.493Z,83.50
2017-12-14T16:30:51.069Z,56.60
2017-12-14T16:33:18.583Z,31.97
2017-12-14T16:35:46.113Z,49.23
2017-12-14T16:38:13.648Z,26.60
2017-12-14T16:40:41.180Z,25.50
2017-12-14T16:43:08.691Z,31.93
2017-12-14T16:45:36.264Z,34.83
2017-12-14T16:48:03.810Z,35.17
2017-12-14T16:50:31.315Z,26.10
2017-12-14T16:52:58.876Z,32.70
2017-12-14T16:55:26.399Z,33.13
2017-12-14T16:57:53.915Z,44.37
2017-12-14T17:00:21.468Z,36.80
2017-12-14T17:02:49.028Z,39.57
2017-12-14T17:05:16.613Z,36.37
2017-12-14T17:07:44.133Z,34.13
2017-12-14T17:10:11.640Z,29.30
2017-12-14T17:12:39.312Z,33.37
2017-12-14T17:15:06.825Z,36.97
2017-12-14T17:17:34.344Z,36.20
2017-12-14T17:20:01.930Z,36.83
2017-12-14T17:22:29.481Z,42.40
2017-12-14T17:24:56.985Z,75.47
2017-12-14T17:27:24.552Z,30.13
2017-12-14T17:29:52.069Z,43.43
2017-12-14T17:32:19.580Z,40.37
2017-12-14T17:34:47.204Z,46.50
2017-12-14T17:37:14.730Z,37.27
2017-12-14T17:39:42.314Z,37.70
2017-12-14T17:42:09.856Z,43.67
2017-12-14T17:44:37.371Z,30.93
2017-12-14T17:47:04.935Z,36.87
2017-12-14T17:49:32.457Z,39.03
2017-12-14T17:51:59.976Z,46.10
2017-12-14T17:54:27.597Z,43.17
2017-12-14T17:56:55.112Z,38.27
2017-12-14T17:59:22.633Z,50.10
2017-12-14T18:01:50.181Z,43.30
2017-12-14T18:04:17.709Z,50.80
2017-12-14T18:06:45.276Z,37.63
2017-12-14T18:09:12.813Z,42.07
2017-12-14T18:11:40.320Z,36.10
2017-12-14T18:14:07.925Z,42.17
2017-12-14T18:16:35.445Z,38.33
2017-12-14T18:19:02.965Z,37.87
2017-12-14T18:21:30.518Z,30.77
2017-12-14T18:23:58.037Z,41.20
2017-12-14T18:26:25.569Z,40.23
2017-12-14T18:28:53.098Z,35.97
2017-12-14T18:31:20.693Z,48.30
2017-12-14T18:33:48.237Z,34.70
2017-12-14T18:36:15.750Z,38.63
2017-12-14T18:38:43.316Z,36.87
2017-12-14T18:41:10.849Z,36.20
2017-12-14T18:43:38.374Z,46.77
2017-12-14T18:46:05.936Z,38.30
2017-12-14T18:48:33.667Z,31.40
2017-12-14T18:51:01.236Z,36.90
2017-12-14T18:53:28.787Z,49.73
2017-12-14T18:55:56.363Z,40.30
2017-12-14T18:58:23.898Z,36.80
2017-12-14T19:00:51.421Z,45.50
2017-12-14T19:03:18.992Z,42.00
2017-12-14T19:05:46.566Z,43.00
2017-12-14T19:08:14.226Z,40.87
2017-12-14T19:10:41.752Z,43.77
2017-12-14T19:13:09.289Z,40.73
2017-12-14T19:15:36.856Z,42.47
2017-12-14T19:18:04.407Z,51.13
2017-12-14T19:20:31.951Z,61.07
2017-12-14T19:22:59.488Z,39.87
2017-12-14T19:25:27.072Z,61.50
2017-12-14T19:27:54.622Z,50.23
2017-12-14T19:30:22.186Z,43.00
2017-12-14T19:32:49.711Z,49.10
2017-12-14T19:35:17.295Z,34.30
2017-12-14T19:37:44.822Z,34.17
2017-12-14T19:40:12.341Z,35.87
2017-12-14T19:42:39.895Z,33.30
2017-12-14T19:45:07.412Z,38.80
2017-12-14T19:47:34.993Z,37.20
2017-12-14T19:50:02.561Z,41.20
2017-12-14T19:52:30.154Z,30.03
2017-12-14T19:54:57.668Z,29.37
2017-12-14T19:57:25.184Z,37.90
2017-12-14T19:59:52.752Z,32.70
2017-12-14T20:02:20.273Z,35.93
2017-12-14T20:04:47.801Z,42.50
2017-12-14T20:07:15.382Z,30.80
2017-12-14T20:09:42.909Z,30.67
2017-12-14T20:12:10.432Z,35.80
2017-12-14T20:14:37.991Z,34.20
2017-12-14T20:17:05.523Z,36.53
2017-12-14T20:19:33.050Z,38.00
2017-12-14T20:22:00.656Z,36.03
2017-12-14T20:24:28.185Z,34.73
2017-12-14T20:26:55.721Z,43.07
2017-12-14T20:29:23.288Z,43.30
2017-12-14T20:31:50.808Z,37.87
2017-12-14T20:34:18.381Z,49.30
2017-12-14T20:36:45.911Z,38.20
2017-12-14T20:39:13.447Z,42.03
2017-12-14T20:41:40.989Z,43.33
2017-12-14T20:44:08.653Z,44.90
2017-12-14T20:46:36.200Z,45.20
2017-12-14T20:49:03.757Z,42.70
2017-12-14T20:51:31.344Z,52.60
2017-12-14T20:53:58.871Z,45.27
2017-12-14T20:56:26.418Z,47.67
2017-12-14T20:58:54.054Z,44.97
2017-12-14T21:01:21.586Z,46.83
2017-12-14T21:03:49.161Z,43.33
2017-12-14T21:06:16.689Z,36.87
2017-12-14T21:08:44.276Z,45.57
2017-12-14T21:11:11.789Z,41.53
2017-12-14T21:13:39.292Z,52.40
2017-12-14T21:16:07.309Z,49.67
2017-12-14T21:18:34.847Z,47.73
2017-12-14T21:21:02.364Z,51.60
2017-12-14T21:23:29.900Z,51.30
2017-12-14T21:25:57.425Z,51.13
2017-12-14T21:28:24.992Z,46.57
2017-12-14T21:30:52.503Z,56.73
2017-12-14T21:33:20.046Z,50.80
2017-12-14T21:35:47.636Z,50.87
2017-12-14T21:38:15.210Z,46.43
2017-12-14T21:40:42.724Z,45.53
2017-12-14T21:43:10.287Z,68.90
2017-12-14T21:45:37.787Z,44.80
2017-12-14T21:48:05.310Z,46.83
2017-12-14T21:50:33.744Z,42.33
2017-12-14T21:53:01.318Z,41.90
2017-12-14T21:55:28.846Z,42.33
2017-12-14T21:57:56.368Z,49.63
2017-12-14T22:00:23.970Z,48.80
2017-12-14T22:02:51.504Z,41.00
2017-12-14T22:05:19.021Z,42.20
2017-12-14T22:07:46.592Z,47.17
2017-12-14T22:10:14.108Z,40.77
2017-12-14T22:12:41.611Z,50.67
2017-12-14T22:15:09.160Z,42.47
2017-12-14T22:17:36.738Z,43.20
2017-12-14T22:20:04.255Z,46.63
2017-12-14T22:22:31.773Z,45.43
2017-12-14T22:24:59.337Z,45.93
2017-12-14T22:27:26.922Z,42.23
2017-12-14T22:29:54.492Z,41.90
2017-12-14T22:32:22.005Z,37.77
2017-12-14T22:34:49.515Z,48.30
2017-12-14T22:37:17.053Z,43.57
2017-12-14T22:39:44.629Z,49.23
2017-12-14T22:42:12.144Z,42.43
2017-12-14T22:44:39.651Z,47.13
2017-12-14T22:47:07.188Z,45.97
2017-12-14T22:49:34.728Z,49.27
2017-12-14T22:52:02.236Z,51.33
2017-12-14T22:54:29.803Z,38.80
2017-12-14T22:56:57.312Z,45.17
2017-12-14T22:59:24.842Z,44.37
2017-12-14T23:01:52.502Z,48.70
2017-12-14T23:04:19.986Z,38.43
2017-12-14T23:06:47.501Z,49.77
2017-12-14T23:09:15.066Z,48.07
2017-12-14T23:11:42.612Z,43.73
2017-12-14T23:14:10.167Z,46.97
2017-12-14T23:16:37.693Z,46.50
2017-12-14T23:19:05.252Z,39.37
2017-12-14T23:21:32.760Z,45.73
2017-12-14T23:24:00.264Z,46.33
2017-12-14T23:26:27.853Z,52.43
2017-12-14T23:28:55.375Z,45.00
2017-12-14T23:31:22.945Z,41.63
2017-12-14T23:33:50.458Z,53.67
2017-12-14T23:36:17.968Z,48.47
2017-12-14T23:38:45.527Z,43.73
2017-12-14T23:41:13.106Z,49.70
2017-12-14T23:43:40.619Z,53.90
2017-12-14T23:46:08.137Z,50.03
2017-12-14T23:48:35.667Z,41.27
2017-12-14T23:51:03.185Z,52.30
2017-12-14T23:53:30.735Z,54.13
2017-12-14T23:55:58.240Z,46.37
2017-12-14T23:58:25.760Z,46.60
